Time;durP1;ratioP1;P1;durP2;ratioP2;P2;SDS_P1;SDS_P2;PMS_P1;PMS_P2;Temp;Humidity;BMP_temperature;BMP_pressure;BME280_temperature;BME280_humidity;BME280_pressure;Samples;Min_cycle;Max_cycle;Signal;HPM_P1;HPM_P2
2022/03/06 00:01:18;;;;;;;3.25;1.08;;;23.50;99.90;;;;;;4985712;28;20125;-69
2022/03/06 00:03:45;;;;;;;3.50;1.02;;;23.70;99.90;;;;;;4995417;28;20033;-72
2022/03/06 00:06:16;;;;;;;1.23;0.90;;;23.80;99.90;;;;;;4997402;28;20038;-72
2022/03/06 00:08:43;;;;;;;1.38;0.70;;;24.00;99.90;;;;;;4995745;28;20484;-72
2022/03/06 00:11:11;;;;;;;2.10;0.73;;;24.20;99.90;;;;;;4996872;28;20149;-67
2022/03/06 00:13:37;;;;;;;2.15;1.10;;;24.20;99.90;;;;;;4997705;28;20499;-72
2022/03/06 00:16:05;;;;;;;3.13;1.98;;;24.20;99.90;;;;;;4996144;28;20109;-67
2022/03/06 00:18:35;;;;;;;1.65;0.98;;;24.20;99.90;;;;;;4991453;28;20030;-72
2022/03/06 00:21:03;;;;;;;1.42;0.88;;;24.20;99.90;;;;;;4997319;28;20509;-71
2022/03/06 00:23:30;;;;;;;1.88;0.73;;;24.20;99.90;;;;;;4996800;28;20109;-71
2022/03/06 00:25:57;;;;;;;2.00;0.68;;;24.10;99.90;;;;;;4995497;28;20026;-66
2022/03/06 00:28:24;;;;;;;5.85;3.35;;;24.20;99.90;;;;;;4989449;28;20034;-67
2022/03/06 00:30:51;;;;;;;1.85;1.33;;;24.20;99.90;;;;;;4992006;28;20402;-66
2022/03/06 00:33:18;;;;;;;2.60;1.00;;;24.20;99.90;;;;;;5000638;28;20136;-67
2022/03/06 00:35:45;;;;;;;1.17;0.60;;;24.30;99.90;;;;;;5000281;28;20018;-70
2022/03/06 00:38:12;;;;;;;1.45;0.70;;;24.40;99.90;;;;;;4997833;28;20073;-65
2022/03/06 00:40:41;;;;;;;1.33;0.60;;;24.30;99.90;;;;;;5000084;28;20026;-67
2022/03/06 00:43:09;;;;;;;3.72;1.92;;;24.10;99.90;;;;;;5000271;28;20037;-71
2022/03/06 00:45:36;;;;;;;1.10;0.52;;;24.10;99.90;;;;;;4999572;28;20120;-66
2022/03/06 00:48:03;;;;;;;1.55;0.65;;;23.90;99.90;;;;;;4998738;28;20538;-67
2022/03/06 00:50:30;;;;;;;1.45;0.93;;;23.90;99.90;;;;;;5000011;28;20108;-67
2022/03/06 00:52:57;;;;;;;2.63;1.00;;;23.90;99.90;;;;;;5000796;28;20030;-67
2022/03/06 00:55:24;;;;;;;1.38;0.63;;;23.90;99.90;;;;;;4998907;28;20109;-67
2022/03/06 00:57:51;;;;;;;1.42;0.65;;;23.90;99.90;;;;;;4999367;28;20026;-67
2022/03/06 01:00:18;;;;;;;4.32;2.22;;;23.90;99.90;;;;;;5001141;28;20033;-67
2022/03/06 01:02:45;;;;;;;3.70;0.93;;;24.00;99.90;;;;;;5000411;28;20026;-68
2022/03/06 01:05:12;;;;;;;1.70;0.65;;;24.10;99.90;;;;;;4999249;28;20380;-70
2022/03/06 01:07:39;;;;;;;1.70;0.90;;;24.20;99.90;;;;;;4999708;28;20053;-66
2022/03/06 01:10:07;;;;;;;2.33;1.00;;;24.30;99.90;;;;;;5000297;28;20065;-67
2022/03/06 01:12:34;;;;;;;1.63;1.00;;;24.40;99.90;;;;;;4998445;28;20174;-68
2022/03/06 01:15:01;;;;;;;4.25;0.98;;;24.30;99.90;;;;;;4999323;28;20025;-69
2022/03/06 01:17:28;;;;;;;1.80;0.85;;;24.20;99.90;;;;;;4999033;28;20320;-65
2022/03/06 01:19:55;;;;;;;1.85;0.95;;;24.10;99.90;;;;;;4999107;28;20053;-64
2022/03/06 01:22:22;;;;;;;2.13;0.80;;;24.20;99.90;;;;;;4999897;28;20030;-66
2022/03/06 01:24:49;;;;;;;1.90;0.73;;;24.30;99.90;;;;;;5001533;28;20456;-66
2022/03/06 01:27:16;;;;;;;1.40;0.70;;;24.60;99.90;;;;;;5005110;28;20034;-66
2022/03/06 01:29:44;;;;;;;1.52;0.73;;;24.80;99.90;;;;;;4998917;28;20033;-66
2022/03/06 01:32:11;;;;;;;1.60;0.70;;;24.60;99.90;;;;;;4998863;28;20489;-66
2022/03/06 01:34:38;;;;;;;2.63;0.80;;;24.60;99.90;;;;;;5000539;28;20366;-69
2022/03/06 01:37:05;;;;;;;1.10;0.70;;;24.40;99.90;;;;;;4998554;28;20050;-66
2022/03/06 01:39:32;;;;;;;2.45;0.90;;;24.40;99.90;;;;;;4998914;28;20417;-68
2022/03/06 01:41:59;;;;;;;2.35;1.33;;;24.30;99.90;;;;;;4998507;28;20408;-67
2022/03/06 01:44:26;;;;;;;1.45;0.60;;;24.20;99.90;;;;;;4999297;28;20388;-70
2022/03/06 01:46:53;;;;;;;3.22;1.05;;;24.20;99.90;;;;;;4998884;28;20026;-66
2022/03/06 01:49:20;;;;;;;2.72;1.70;;;24.20;99.90;;;;;;5000650;28;20037;-67
2022/03/06 01:51:47;;;;;;;2.28;1.17;;;24.30;99.90;;;;;;4999544;28;20022;-67
2022/03/06 01:54:14;;;;;;;1.30;0.98;;;24.40;99.90;;;;;;5007388;28;20046;-67
2022/03/06 01:56:42;;;;;;;2.00;0.70;;;24.50;99.90;;;;;;5007096;28;20021;-65
2022/03/06 01:59:11;;;;;;;1.60;0.88;;;24.60;99.90;;;;;;5003317;28;20393;-66
2022/03/06 02:01:38;;;;;;;2.17;1.10;;;24.50;99.90;;;;;;5003568;28;20026;-68
2022/03/06 02:04:05;;;;;;;0.73;0.65;;;24.40;99.90;;;;;;5006716;28;20511;-66
2022/03/06 02:06:32;;;;;;;1.25;0.80;;;24.30;99.90;;;;;;5004427;28;20092;-66
2022/03/06 02:08:59;;;;;;;1.05;0.80;;;24.30;99.90;;;;;;5003683;28;20373;-67
2022/03/06 02:11:27;;;;;;;2.35;0.82;;;24.40;99.90;;;;;;5005731;28;20026;-68
2022/03/06 02:13:55;;;;;;;3.17;0.82;;;24.50;99.90;;;;;;5004050;28;20476;-68
2022/03/06 02:16:22;;;;;;;3.42;1.02;;;24.60;99.90;;;;;;5008143;28;20108;-67
2022/03/06 02:18:49;;;;;;;2.63;0.80;;;24.70;99.90;;;;;;5006929;28;20544;-68
2022/03/06 02:21:16;;;;;;;2.10;0.90;;;25.00;99.90;;;;;;5005594;28;20033;-68
2022/03/06 02:23:43;;;;;;;2.22;1.00;;;25.20;99.90;;;;;;5002996;28;20109;-67
2022/03/06 02:26:11;;;;;;;8.80;3.13;;;25.40;99.90;;;;;;5005027;28;20049;-67
2022/03/06 02:28:38;;;;;;;3.47;0.77;;;25.50;99.90;;;;;;5008027;28;20112;-66
2022/03/06 02:31:05;;;;;;;2.10;0.95;;;25.50;99.90;;;;;;5005156;28;20079;-67
2022/03/06 02:33:32;;;;;;;2.03;0.65;;;25.50;99.90;;;;;;5005068;28;20473;-68
2022/03/06 02:35:59;;;;;;;2.28;0.80;;;25.40;99.90;;;;;;5005160;28;20482;-68
2022/03/06 02:38:26;;;;;;;2.42;0.70;;;25.40;99.90;;;;;;5003532;28;20030;-68
2022/03/06 02:40:54;;;;;;;3.70;0.93;;;25.40;99.90;;;;;;5005079;28;20125;-69
2022/03/06 02:43:21;;;;;;;3.22;0.93;;;25.40;99.90;;;;;;5007992;28;20032;-68
2022/03/06 02:45:48;;;;;;;8.10;5.78;;;25.40;99.90;;;;;;5006951;28;20516;-69
2022/03/06 02:48:15;;;;;;;2.08;1.58;;;25.40;99.90;;;;;;5004188;28;20034;-68
2022/03/06 02:50:43;;;;;;;2.05;0.55;;;25.30;99.90;;;;;;4999445;28;20030;-69
2022/03/06 02:53:10;;;;;;;2.78;0.70;;;25.00;99.90;;;;;;5002596;28;20500;-68
2022/03/06 02:55:38;;;;;;;2.20;0.68;;;25.00;99.90;;;;;;5002800;28;20520;-69
2022/03/06 02:58:06;;;;;;;2.42;0.73;;;25.00;99.90;;;;;;5004561;28;20064;-67
2022/03/06 03:00:33;;;;;;;5.63;0.77;;;25.00;99.90;;;;;;5004814;28;20060;-67
2022/03/06 03:03:00;;;;;;;1.60;0.40;;;25.00;99.90;;;;;;5005939;28;20029;-69
2022/03/06 03:05:27;;;;;;;0.77;0.45;;;25.00;99.90;;;;;;5005616;28;20034;-67
2022/03/06 03:07:54;;;;;;;2.30;0.60;;;25.00;99.90;;;;;;5006590;28;20484;-68
2022/03/06 03:10:23;;;;;;;0.32;0.30;;;25.10;99.90;;;;;;5006694;28;20104;-67
2022/03/06 03:12:50;;;;;;;2.30;0.50;;;25.20;99.90;;;;;;5006142;28;20026;-67
2022/03/06 03:15:17;;;;;;;2.42;0.90;;;25.10;99.90;;;;;;5007429;28;20030;-67
2022/03/06 03:17:45;;;;;;;3.17;0.52;;;25.20;99.90;;;;;;5007330;28;20637;-67
2022/03/06 03:20:13;;;;;;;4.03;0.80;;;25.20;99.90;;;;;;5005020;28;20034;-65
2022/03/06 03:22:41;;;;;;;4.28;0.68;;;25.20;99.90;;;;;;5007221;28;20049;-65
2022/03/06 03:25:08;;;;;;;0.50;0.50;;;25.30;99.90;;;;;;5006130;28;20041;-66
2022/03/06 03:27:36;;;;;;;2.75;0.75;;;25.30;99.90;;;;;;5006463;28;20056;-65
2022/03/06 03:30:05;;;;;;;0.85;0.60;;;25.30;99.90;;;;;;5003947;28;20167;-66
2022/03/06 03:32:32;;;;;;;2.05;0.70;;;25.20;99.90;;;;;;5005857;28;20160;-66
2022/03/06 03:34:59;;;;;;;2.25;0.70;;;25.20;99.90;;;;;;5007968;28;20109;-67
2022/03/06 03:37:26;;;;;;;0.52;0.47;;;25.30;99.90;;;;;;5004923;28;20095;-65
2022/03/06 03:39:53;;;;;;;3.25;0.80;;;25.40;99.90;;;;;;5003309;28;20026;-67
2022/03/06 03:42:20;;;;;;;2.22;0.65;;;25.70;99.90;;;;;;5002955;28;20562;-65
2022/03/06 03:44:47;;;;;;;2.42;0.55;;;26.00;99.90;;;;;;5004755;28;20030;-65
2022/03/06 03:47:14;;;;;;;1.85;0.80;;;26.30;99.90;;;;;;5003881;28;20065;-65
2022/03/06 03:49:41;;;;;;;2.00;0.80;;;26.50;99.90;;;;;;5002400;28;20034;-67
2022/03/06 03:52:08;;;;;;;1.20;0.68;;;26.90;99.90;;;;;;5008686;28;20487;-67
2022/03/06 03:54:35;;;;;;;2.08;0.82;;;27.20;99.90;;;;;;5001145;28;20605;-65
2022/03/06 03:57:02;;;;;;;3.35;0.90;;;27.00;99.90;;;;;;5000665;28;20578;-66
2022/03/06 03:59:29;;;;;;;1.33;0.90;;;26.90;99.90;;;;;;5005946;28;20026;-65
2022/03/06 04:01:56;;;;;;;2.95;1.00;;;26.90;99.90;;;;;;5002525;28;20037;-64
2022/03/06 04:04:26;;;;;;;2.47;1.20;;;26.70;99.90;;;;;;5002311;28;20583;-64
2022/03/06 04:06:53;;;;;;;2.40;1.23;;;26.90;99.90;;;;;;5005422;28;20366;-64
2022/03/06 04:09:20;;;;;;;3.63;1.40;;;26.90;99.90;;;;;;5006725;28;20033;-65
2022/03/06 04:11:47;;;;;;;2.13;1.23;;;27.10;99.90;;;;;;5001159;28;20655;-66
2022/03/06 04:14:14;;;;;;;2.42;1.23;;;27.40;99.90;;;;;;5005779;28;20037;-65
2022/03/06 04:16:41;;;;;;;2.70;1.30;;;27.60;99.90;;;;;;5001591;28;20114;-65
2022/03/06 04:19:09;;;;;;;2.08;1.10;;;27.40;99.90;;;;;;5000303;28;20022;-65
2022/03/06 04:21:36;;;;;;;4.05;1.48;;;27.00;99.90;;;;;;5002888;28;20040;-66
2022/03/06 04:24:03;;;;;;;2.83;1.27;;;26.80;99.90;;;;;;5003720;28;20056;-66
2022/03/06 04:26:30;;;;;;;2.25;1.17;;;26.60;99.90;;;;;;4654400;28;10000121;-64
2022/03/06 04:28:57;;;;;;;2.13;0.90;;;26.40;99.90;;;;;;4997218;28;20026;-66
2022/03/06 04:31:24;;;;;;;1.73;0.90;;;26.20;99.90;;;;;;4997567;28;20092;-66
2022/03/06 04:33:51;;;;;;;1.50;0.80;;;26.00;99.90;;;;;;5001030;28;20137;-63
2022/03/06 04:36:18;;;;;;;2.15;0.82;;;25.90;99.90;;;;;;4983958;28;20022;-67
2022/03/06 04:38:45;;;;;;;2.90;1.20;;;25.80;99.90;;;;;;5000453;28;20033;-63
2022/03/06 04:41:12;;;;;;;3.35;1.10;;;25.90;99.90;;;;;;5000350;28;20180;-65
2022/03/06 04:43:39;;;;;;;2.70;1.10;;;25.80;99.90;;;;;;4997153;28;20037;-68
2022/03/06 04:46:06;;;;;;;2.65;0.82;;;25.90;99.90;;;;;;4998009;28;20026;-66
2022/03/06 04:48:33;;;;;;;2.08;0.80;;;26.10;99.90;;;;;;4999407;28;20048;-68
2022/03/06 04:51:00;;;;;;;2.00;0.75;;;26.20;99.90;;;;;;4993783;28;20104;-65
2022/03/06 04:53:28;;;;;;;1.67;0.60;;;26.20;99.90;;;;;;4996379;28;20030;-67
2022/03/06 04:55:54;;;;;;;1.40;0.45;;;26.20;99.90;;;;;;4996993;28;20113;-65
2022/03/06 04:58:21;;;;;;;1.25;0.50;;;25.90;99.90;;;;;;4649902;28;10000004;-69
2022/03/06 05:00:49;;;;;;;2.20;0.80;;;25.90;99.90;;;;;;4991749;28;20382;-65
2022/03/06 05:03:16;;;;;;;2.00;0.60;;;25.90;99.90;;;;;;4993508;28;20105;-68
2022/03/06 05:05:43;;;;;;;2.83;0.68;;;25.80;99.90;;;;;;4994288;28;20060;-67
2022/03/06 05:08:10;;;;;;;1.83;0.80;;;25.80;99.90;;;;;;4994294;28;20038;-68
2022/03/06 05:10:37;;;;;;;0.65;0.50;;;26.10;99.90;;;;;;4994564;28;20744;-65
2022/03/06 05:13:04;;;;;;;1.48;0.50;;;27.00;99.90;;;;;;4991623;28;20041;-69
2022/03/06 05:15:32;;;;;;;0.70;0.50;;;27.70;99.90;;;;;;4994089;28;20018;-66
2022/03/06 05:18:00;;;;;;;0.52;0.40;;;28.50;99.90;;;;;;4992879;28;20274;-66
2022/03/06 05:20:27;;;;;;;2.38;1.05;;;28.80;99.90;;;;;;4993955;28;20057;-66
2022/03/06 05:22:55;;;;;;;2.75;0.98;;;28.40;99.90;;;;;;4994924;28;20037;-69
2022/03/06 05:25:22;;;;;;;1.67;0.82;;;27.70;99.90;;;;;;4994787;28;20030;-69
2022/03/06 05:27:49;;;;;;;0.60;0.45;;;27.40;99.90;;;;;;4997450;28;20096;-66
2022/03/06 05:30:16;;;;;;;2.05;0.90;;;26.80;99.90;;;;;;4998969;28;20030;-64
2022/03/06 05:32:44;;;;;;;2.33;0.93;;;26.20;99.90;;;;;;4996027;28;20626;-68
2022/03/06 05:35:11;;;;;;;0.80;0.40;;;25.80;99.90;;;;;;5005077;28;20035;-68
2022/03/06 05:37:39;;;;;;;0.55;0.40;;;25.40;99.90;;;;;;5005882;28;20522;-70
2022/03/06 05:40:07;;;;;;;1.58;0.40;;;25.10;99.90;;;;;;4997467;28;20652;-70
2022/03/06 05:42:35;;;;;;;1.25;0.60;;;24.90;99.90;;;;;;5006629;28;20408;-69
2022/03/06 05:45:02;;;;;;;1.38;0.55;;;24.90;99.90;;;;;;5007557;28;20033;-70
2022/03/06 05:47:29;;;;;;;1.95;0.60;;;24.80;99.90;;;;;;5003146;28;20029;-71
2022/03/06 05:49:56;;;;;;;2.10;0.68;;;24.60;99.90;;;;;;5007361;28;20026;-68
2022/03/06 05:52:24;;;;;;;0.85;0.32;;;24.40;99.90;;;;;;5004400;28;20092;-66
2022/03/06 05:54:51;;;;;;;0.80;0.40;;;24.30;99.90;;;;;;5000593;28;20602;-69
2022/03/06 05:57:18;;;;;;;0.85;0.40;;;24.20;99.90;;;;;;5002485;28;20030;-67
2022/03/06 05:59:45;;;;;;;0.90;0.60;;;24.10;99.90;;;;;;5003102;28;20079;-68
2022/03/06 06:02:12;;;;;;;0.45;0.30;;;24.10;99.90;;;;;;5005417;28;20122;-67
2022/03/06 06:04:41;;;;;;;0.57;0.38;;;23.90;99.90;;;;;;4999152;28;20089;-68
2022/03/06 06:07:09;;;;;;;1.48;0.40;;;24.00;99.90;;;;;;5000208;28;20593;-69
2022/03/06 06:09:36;;;;;;;0.65;0.30;;;24.00;99.90;;;;;;5006833;28;20018;-68
2022/03/06 06:12:03;;;;;;;1.00;0.30;;;24.20;99.90;;;;;;4996635;28;20443;-68
2022/03/06 06:14:31;;;;;;;0.60;0.40;;;24.20;99.90;;;;;;4998736;28;20028;-68
2022/03/06 06:16:58;;;;;;;2.72;1.17;;;24.10;99.90;;;;;;4997751;28;20021;-66
2022/03/06 06:19:25;;;;;;;0.52;0.35;;;24.00;99.90;;;;;;4996549;28;20030;-67
2022/03/06 06:21:52;;;;;;;2.78;0.60;;;24.00;99.90;;;;;;4996027;28;20041;-68
2022/03/06 06:24:19;;;;;;;4.75;2.50;;;24.20;99.90;;;;;;4995360;28;20029;-65
2022/03/06 06:26:47;;;;;;;11.65;8.93;;;24.30;99.90;;;;;;4995137;28;20560;-64
2022/03/06 06:29:15;;;;;;;4.45;1.92;;;24.50;99.90;;;;;;4997356;28;20045;-65
2022/03/06 06:31:42;;;;;;;1.67;1.10;;;24.50;99.90;;;;;;4995920;28;20092;-67
2022/03/06 06:34:09;;;;;;;0.60;0.40;;;24.40;99.90;;;;;;4995876;28;20385;-66
2022/03/06 06:36:36;;;;;;;1.92;0.73;;;24.20;99.90;;;;;;4996761;28;20381;-65
2022/03/06 06:39:03;;;;;;;0.52;0.50;;;24.20;99.90;;;;;;4999945;28;20419;-65
2022/03/06 06:41:30;;;;;;;0.30;0.20;;;24.10;99.90;;;;;;4999552;28;20515;-68
2022/03/06 06:43:57;;;;;;;0.75;0.20;;;24.10;99.90;;;;;;5000667;28;20441;-67
2022/03/06 06:46:24;;;;;;;0.25;0.25;;;24.10;99.90;;;;;;5002623;28;20374;-65
2022/03/06 06:48:51;;;;;;;0.63;0.32;;;24.20;99.90;;;;;;4996968;28;20022;-66
2022/03/06 06:51:18;;;;;;;0.52;0.22;;;24.20;99.90;;;;;;4999551;28;20489;-68
2022/03/06 06:53:45;;;;;;;0.63;0.50;;;24.30;99.90;;;;;;5004096;28;20028;-67
2022/03/06 06:56:12;;;;;;;1.10;0.75;;;24.30;99.90;;;;;;4999413;28;20029;-68
2022/03/06 06:58:39;;;;;;;0.93;0.47;;;24.40;99.90;;;;;;4998175;28;20076;-68
2022/03/06 07:01:07;;;;;;;0.20;0.20;;;24.90;99.90;;;;;;4996635;28;20072;-66
2022/03/06 07:03:34;;;;;;;0.70;0.52;;;25.50;99.90;;;;;;4997680;28;20488;-65
2022/03/06 07:06:01;;;;;;;0.38;0.28;;;26.00;99.90;;;;;;4997895;28;20347;-68
2022/03/06 07:08:28;;;;;;;2.30;0.30;;;26.40;99.90;;;;;;4996514;28;20030;-67
2022/03/06 07:10:55;;;;;;;0.43;0.25;;;26.80;99.90;;;;;;4994600;28;20319;-65
2022/03/06 07:13:22;;;;;;;1.90;0.30;;;27.10;99.90;;;;;;4996570;28;20484;-65
2022/03/06 07:15:49;;;;;;;1.13;0.30;;;27.50;99.90;;;;;;4997891;28;20033;-65
2022/03/06 07:18:16;;;;;;;1.75;0.30;;;27.90;99.90;;;;;;4998743;28;20442;-66
2022/03/06 07:20:43;;;;;;;0.73;0.20;;;28.50;99.90;;;;;;4999225;28;20129;-66
2022/03/06 07:23:10;;;;;;;0.08;0.08;;;28.70;99.90;;;;;;5006167;28;20038;-68
2022/03/06 07:25:37;;;;;;;0.47;0.30;;;28.50;99.90;;;;;;5004566;28;20374;-65
2022/03/06 07:28:04;;;;;;;0.47;0.38;;;28.70;99.90;;;;;;5013608;28;20029;-66
2022/03/06 07:30:31;;;;;;;1.48;0.30;;;28.60;99.90;;;;;;5012806;28;20432;-66
2022/03/06 07:33:00;;;;;;;0.20;0.15;;;27.90;99.90;;;;;;5003809;28;20388;-65
2022/03/06 07:35:28;;;;;;;0.60;0.13;;;27.10;99.90;;;;;;5002917;28;20045;-66
2022/03/06 07:37:55;;;;;;;0.10;0.10;;;26.50;99.90;;;;;;5002078;28;20056;-70
2022/03/06 07:40:23;;;;;;;1.88;0.22;;;26.10;99.90;;;;;;5001212;28;20316;-69
2022/03/06 07:42:50;;;;;;;0.15;0.15;;;26.20;99.90;;;;;;5005638;28;20037;-68
2022/03/06 07:45:18;;;;;;;1.20;0.28;;;25.90;99.90;;;;;;5005178;28;20026;-66
2022/03/06 07:47:46;;;;;;;1.42;0.30;;;25.90;99.90;;;;;;5002620;28;20038;-68
2022/03/06 07:50:14;;;;;;;0.63;0.40;;;25.70;99.90;;;;;;5000774;28;20030;-65
2022/03/06 07:52:41;;;;;;;2.65;0.30;;;25.50;99.90;;;;;;5003222;28;20340;-67
2022/03/06 07:55:10;;;;;;;1.55;0.25;;;25.30;99.90;;;;;;5003268;28;20029;-68
2022/03/06 07:57:37;;;;;;;1.35;0.35;;;24.90;99.90;;;;;;5001507;28;20034;-65
2022/03/06 08:00:09;;;;;;;0.28;0.15;;;24.60;99.90;;;;;;5005678;28;20033;-67
2022/03/06 08:02:37;;;;;;;0.20;0.17;;;24.30;99.90;;;;;;5001960;28;20032;-68
2022/03/06 08:05:05;;;;;;;1.42;0.22;;;24.20;99.90;;;;;;5002959;28;20030;-67
2022/03/06 08:07:33;;;;;;;1.85;0.73;;;24.10;99.90;;;;;;5001571;28;20022;-66
2022/03/06 08:10:00;;;;;;;0.57;0.30;;;24.00;99.90;;;;;;4998403;28;20347;-68
2022/03/06 08:12:27;;;;;;;0.15;0.15;;;23.90;99.90;;;;;;5002110;28;21372;-66
2022/03/06 08:14:55;;;;;;;0.95;0.52;;;23.90;99.90;;;;;;4997939;28;20037;-66
2022/03/06 08:17:22;;;;;;;2.45;1.15;;;23.90;99.90;;;;;;4999813;28;20792;-67
2022/03/06 08:19:49;;;;;;;1.80;0.40;;;23.80;99.90;;;;;;4998438;28;20123;-68
2022/03/06 08:22:16;;;;;;;1.50;0.22;;;23.70;99.90;;;;;;4998316;28;20029;-65
2022/03/06 08:24:43;;;;;;;0.82;0.45;;;23.60;99.90;;;;;;4996462;28;20386;-67
2022/03/06 08:27:10;;;;;;;0.93;0.43;;;23.50;99.90;;;;;;4995749;28;20089;-65
2022/03/06 08:29:37;;;;;;;0.40;0.40;;;23.50;99.90;;;;;;4997751;28;20080;-68
2022/03/06 08:32:04;;;;;;;0.50;0.30;;;23.40;99.90;;;;;;4997178;28;20038;-65
2022/03/06 08:34:31;;;;;;;3.95;0.57;;;23.40;99.90;;;;;;5000376;28;20069;-65
2022/03/06 08:36:58;;;;;;;2.63;0.30;;;23.30;99.90;;;;;;4997941;28;20054;-66
2022/03/06 08:39:25;;;;;;;0.40;0.40;;;23.30;99.90;;;;;;4997519;28;20033;-66
2022/03/06 08:41:52;;;;;;;0.55;0.35;;;23.30;99.90;;;;;;4997869;28;20041;-75
2022/03/06 08:44:19;;;;;;;1.10;0.40;;;23.20;99.90;;;;;;4994915;28;20077;-67
2022/03/06 08:46:47;;;;;;;0.70;0.70;;;23.20;99.90;;;;;;4996471;28;20040;-66
2022/03/06 08:49:14;;;;;;;2.70;1.10;;;23.20;99.90;;;;;;4997528;28;20272;-68
2022/03/06 08:51:41;;;;;;;2.03;1.00;;;23.20;99.90;;;;;;4996877;28;20030;-68
2022/03/06 08:54:08;;;;;;;3.03;0.98;;;23.10;99.90;;;;;;4994821;28;20029;-69
2022/03/06 08:56:35;;;;;;;2.10;1.20;;;23.10;99.90;;;;;;4995789;28;20406;-69
2022/03/06 08:59:02;;;;;;;1.73;1.10;;;23.10;99.90;;;;;;4997742;28;20147;-72
2022/03/06 09:01:29;;;;;;;3.88;1.50;;;23.00;99.90;;;;;;4996629;28;20034;-69
2022/03/06 09:03:56;;;;;;;3.85;1.60;;;23.00;99.90;;;;;;4995168;28;20030;-70
2022/03/06 09:06:23;;;;;;;1.80;1.17;;;23.00;99.90;;;;;;4997096;28;20041;-71
2022/03/06 09:08:50;;;;;;;2.08;1.35;;;22.90;99.90;;;;;;4995199;28;20026;-68
2022/03/06 09:11:17;;;;;;;4.15;2.15;;;22.80;99.90;;;;;;4996377;28;20046;-66
2022/03/06 09:13:44;;;;;;;4.10;2.45;;;22.80;99.90;;;;;;4996309;28;20495;-67
2022/03/06 09:16:11;;;;;;;6.10;4.40;;;22.70;99.90;;;;;;4995764;28;20030;-69
2022/03/06 09:18:38;;;;;;;1.80;1.30;;;22.70;99.90;;;;;;4995319;28;20508;-68
2022/03/06 09:21:05;;;;;;;2.17;1.20;;;22.60;99.90;;;;;;4995245;28;20399;-69
2022/03/06 09:23:32;;;;;;;1.95;1.25;;;22.60;99.90;;;;;;4996085;28;20695;-67
2022/03/06 09:25:59;;;;;;;4.75;1.40;;;22.60;99.90;;;;;;4994744;28;20034;-68
2022/03/06 09:28:26;;;;;;;3.08;1.08;;;22.50;99.90;;;;;;4999465;28;20105;-68
2022/03/06 09:30:53;;;;;;;2.70;1.20;;;22.50;99.90;;;;;;4998514;28;20496;-68
2022/03/06 09:33:20;;;;;;;3.58;1.00;;;22.50;99.90;;;;;;4994405;28;20121;-68
2022/03/06 09:35:47;;;;;;;3.53;1.25;;;22.50;99.90;;;;;;4996620;28;20567;-69
2022/03/06 09:38:14;;;;;;;3.85;1.23;;;22.40;99.90;;;;;;4995479;28;20140;-69
2022/03/06 09:40:44;;;;;;;4.00;0.98;;;22.40;99.90;;;;;;4996089;28;20030;-68
2022/03/06 09:43:16;;;;;;;2.88;1.17;;;22.30;99.90;;;;;;4994821;28;20030;-68
2022/03/06 09:45:44;;;;;;;4.35;2.00;;;22.30;99.90;;;;;;4995555;28;20033;-68
2022/03/06 09:48:14;;;;;;;4.50;2.63;;;22.30;99.90;;;;;;4997274;28;20100;-68
2022/03/06 09:50:43;;;;;;;3.88;1.73;;;22.30;99.90;;;;;;4990320;28;20017;-67
2022/03/06 09:53:10;;;;;;;4.40;2.40;;;22.30;99.90;;;;;;4989089;28;20751;-72
2022/03/06 09:55:37;;;;;;;3.40;1.52;;;22.20;99.90;;;;;;4994580;28;20026;-69
2022/03/06 09:58:04;;;;;;;2.45;1.20;;;22.30;99.90;;;;;;5001202;28;20466;-68
2022/03/06 10:00:32;;;;;;;1.50;1.25;;;22.30;99.90;;;;;;4993387;28;20636;-70
2022/03/06 10:03:03;;;;;;;3.25;1.20;;;22.30;99.90;;;;;;4996915;28;20029;-67
2022/03/06 10:05:40;;;;;;;2.17;1.30;;;22.20;99.90;;;;;;4991090;28;20489;-67
2022/03/06 10:08:18;;;;;;;2.58;1.00;;;22.20;99.90;;;;;;4993141;28;20038;-71
2022/03/06 10:10:47;;;;;;;4.22;1.55;;;22.20;99.90;;;;;;5000753;28;20030;-73
2022/03/06 10:13:24;;;;;;;3.03;2.05;;;22.20;99.90;;;;;;4995981;28;20021;-69
2022/03/06 10:16:06;;;;;;;5.57;1.48;;;22.20;99.90;;;;;;5003635;28;20072;-70
2022/03/06 10:18:56;;;;;;;2.47;1.63;;;22.20;99.90;;;;;;5000624;28;20034;-70
2022/03/06 10:21:29;;;;;;;2.88;1.63;;;22.20;99.90;;;;;;4990995;28;20073;-69
2022/03/06 10:23:59;;;;;;;;;;;22.20;99.90;;;;;;5000009;28;20443;-69
2022/03/06 10:26:33;;;;;;;2.78;1.27;;;22.20;99.90;;;;;;5003206;28;19957;-70
2022/03/06 10:29:05;;;;;;;4.38;1.67;;;22.20;99.90;;;;;;4997586;28;20141;-71
2022/03/06 10:31:34;;;;;;;;;;;22.20;99.90;;;;;;4993296;28;20041;-71
2022/03/06 10:34:10;;;;;;;4.32;1.60;;;22.10;99.90;;;;;;4991496;28;19914;-71
2022/03/06 10:36:52;;;;;;;2.75;1.35;;;22.10;99.90;;;;;;5015945;23;20447;-70
2022/03/06 10:39:21;;;;;;;3.13;1.58;;;22.10;99.90;;;;;;5035920;28;20083;-70
2022/03/06 10:41:53;;;;;;;4.97;2.10;;;22.00;99.90;;;;;;5048878;28;20426;-66
2022/03/06 10:44:41;;;;;;;3.03;1.40;;;22.10;99.90;;;;;;5045801;28;20086;-67
2022/03/06 10:47:08;;;;;;;6.30;1.40;;;22.10;99.90;;;;;;5048142;28;20494;-69
2022/03/06 10:49:35;;;;;;;3.17;1.45;;;22.10;99.90;;;;;;5048703;28;20025;-68
2022/03/06 10:52:19;;;;;;;4.43;1.70;;;22.10;99.90;;;;;;5043309;28;20441;-67
2022/03/06 10:55:00;;;;;;;4.40;1.55;;;22.20;99.90;;;;;;5048197;28;20025;-67
2022/03/06 10:57:27;;;;;;;6.15;1.70;;;22.20;99.90;;;;;;5043298;28;20059;-67
2022/03/06 10:59:55;;;;;;;3.55;1.52;;;22.30;99.90;;;;;;5047921;28;20538;-69
2022/03/06 11:02:24;;;;;;;4.13;1.38;;;22.30;99.90;;;;;;5041804;28;20039;-70
2022/03/06 11:04:53;;;;;;;3.55;1.60;;;22.30;99.90;;;;;;5045941;28;20051;-68
2022/03/06 11:07:21;;;;;;;4.35;1.73;;;22.30;99.90;;;;;;5034399;28;20061;-66
2022/03/06 11:09:48;;;;;;;6.53;1.70;;;22.30;99.90;;;;;;5048939;28;20561;-66
2022/03/06 11:12:15;;;;;;;4.97;1.30;;;22.30;99.90;;;;;;5047579;28;20025;-68
2022/03/06 11:14:42;;;;;;;3.17;1.10;;;22.30;99.90;;;;;;5044485;28;20380;-67
2022/03/06 11:17:09;;;;;;;5.57;1.70;;;22.30;99.90;;;;;;5038792;28;20057;-68
2022/03/06 11:19:38;;;;;;;6.90;1.65;;;22.20;99.90;;;;;;5047425;28;20463;-71
2022/03/06 11:22:27;;;;;;;5.95;1.55;;;22.20;99.90;;;;;;5038422;28;20033;-71
2022/03/06 11:25:03;;;;;;;3.80;1.60;;;22.20;99.90;;;;;;5045119;28;20357;-71
2022/03/06 11:27:48;;;;;;;8.90;1.50;;;22.10;99.90;;;;;;5036884;28;20040;-68
2022/03/06 11:30:22;;;;;;;9.35;1.88;;;22.00;99.90;;;;;;5048385;28;20028;-69
2022/03/06 11:33:00;;;;;;;3.35;1.50;;;22.00;99.90;;;;;;5043958;28;20480;-70
2022/03/06 11:35:42;;;;;;;2.70;1.75;;;22.00;99.90;;;;;;5038546;28;20442;-69
2022/03/06 11:38:12;;;;;;;6.05;2.30;;;22.00;99.90;;;;;;5044445;28;20049;-69
2022/03/06 11:40:53;;;;;;;5.82;1.98;;;22.00;99.90;;;;;;5050839;28;20027;-66
2022/03/06 11:43:32;;;;;;;7.13;2.70;;;22.00;99.90;;;;;;5038164;28;20427;-72
2022/03/06 11:46:11;;;;;;;6.50;3.40;;;22.00;99.90;;;;;;5045691;28;20035;-67
2022/03/06 11:48:38;;;;;;;5.90;3.72;;;22.00;99.90;;;;;;5038832;28;20391;-68
2022/03/06 11:51:18;;;;;;;9.15;4.35;;;22.10;99.90;;;;;;5048501;28;20051;-69
2022/03/06 11:54:01;;;;;;;10.90;2.97;;;22.00;99.90;;;;;;5041175;28;20025;-70
2022/03/06 11:56:40;;;;;;;8.95;3.65;;;22.00;99.90;;;;;;5038509;28;20045;-70
2022/03/06 11:59:11;;;;;;;8.90;4.03;;;22.00;99.90;;;;;;4689711;28;10000253;-69
2022/03/06 12:01:41;;;;;;;7.63;3.97;;;22.00;99.90;;;;;;5045858;28;20025;-70
2022/03/06 12:04:15;;;;;;;7.78;3.60;;;22.00;99.90;;;;;;5040706;28;20443;-69
2022/03/06 12:06:52;;;;;;;7.45;3.80;;;22.00;99.90;;;;;;5029173;28;20033;-69
2022/03/06 12:09:26;;;;;;;10.30;4.35;;;22.00;99.90;;;;;;5043280;28;20037;-68
2022/03/06 12:11:57;;;;;;;8.48;4.57;;;22.00;99.90;;;;;;5040131;28;20465;-70
2022/03/06 12:14:36;;;;;;;11.73;4.70;;;22.00;99.90;;;;;;5049953;28;20021;-70
2022/03/06 12:17:04;;;;;;;8.80;4.82;;;22.00;99.90;;;;;;5047945;28;20017;-71
2022/03/06 12:19:51;;;;;;;10.68;5.28;;;21.90;99.90;;;;;;5054935;28;20379;-69
2022/03/06 12:22:30;;;;;;;10.75;5.00;;;22.00;99.90;;;;;;4965170;28;20453;-68
2022/03/06 12:25:11;;;;;;;12.70;5.05;;;22.00;99.90;;;;;;4967134;28;20592;-68
2022/03/06 12:27:41;;;;;;;12.93;6.18;;;22.00;99.90;;;;;;4979243;28;20104;-68
2022/03/06 12:30:10;;;;;;;12.32;7.18;;;22.00;99.90;;;;;;4970399;28;20057;-70
2022/03/06 12:32:40;;;;;;;11.30;6.40;;;21.90;99.90;;;;;;4968957;28;20087;-71
2022/03/06 12:35:14;;;;;;;8.68;5.30;;;22.00;99.90;;;;;;4966342;28;20027;-69
2022/03/06 12:37:53;;;;;;;10.63;5.03;;;22.00;99.90;;;;;;4973127;28;20093;-70
2022/03/06 12:40:24;;;;;;;14.13;3.67;;;22.00;99.90;;;;;;4965221;28;20042;-69
2022/03/06 12:43:03;;;;;;;6.72;3.15;;;22.00;99.90;;;;;;4969424;28;20049;-70
2022/03/06 12:45:31;;;;;;;12.88;2.97;;;22.00;99.90;;;;;;4968434;28;20026;-71
2022/03/06 12:47:58;;;;;;;10.25;3.70;;;22.00;99.90;;;;;;4971215;28;20031;-68
2022/03/06 12:50:26;;;;;;;8.73;2.90;;;22.00;99.90;;;;;;4969041;28;20432;-68
2022/03/06 12:52:57;;;;;;;9.23;2.42;;;22.10;99.90;;;;;;4969664;28;20063;-71